createdAt,value
2023-03-18T00:02:25.251Z,95054.34
2023-03-18T00:04:53.579Z,95048.88
2023-03-18T00:07:22.662Z,95059.84
2023-03-18T00:09:52.809Z,95055.53
2023-03-18T00:12:20.539Z,95054.09
2023-03-18T00:14:48.392Z,95057.09
2023-03-18T00:17:16.055Z,95055.97
2023-03-18T00:19:43.761Z,95060.75
2023-03-18T00:22:11.693Z,95062.94
2023-03-18T00:24:40.938Z,95058.16
2023-03-18T00:27:09.651Z,95062.84
2023-03-18T00:29:37.678Z,95078.75
2023-03-18T00:32:06.959Z,95067.03
2023-03-18T00:34:34.752Z,95074.72
2023-03-18T00:37:02.432Z,95075.22
2023-03-18T00:39:32.991Z,95077.09
2023-03-18T00:42:10.528Z,95074.84
2023-03-18T00:44:38.377Z,95077.63
2023-03-18T00:47:06.372Z,95086.59
2023-03-18T00:49:34.363Z,95076.78
2023-03-18T00:52:02.023Z,95083.72
2023-03-18T00:54:30.340Z,95078.63
2023-03-18T00:56:58.010Z,95072.25
2023-03-18T00:59:27.397Z,95077.53
2023-03-18T01:01:55.116Z,95079.63
2023-03-18T01:04:22.784Z,95077.50
2023-03-18T01:06:50.444Z,95068.28
2023-03-18T01:09:18.091Z,95071.56
2023-03-18T01:11:45.835Z,95071.88
2023-03-18T01:14:13.534Z,95064.38
2023-03-18T01:16:43.240Z,95064.75
2023-03-18T01:19:11.107Z,95067.31
2023-03-18T01:21:38.866Z,95072.22
2023-03-18T01:24:07.167Z,95072.72
2023-03-18T01:26:38.592Z,95075.22
2023-03-18T01:29:06.249Z,95077.25
2023-03-18T01:31:35.710Z,95069.19
2023-03-18T01:34:05.684Z,95073.69
2023-03-18T01:36:33.616Z,95066.50
2023-03-18T01:39:01.320Z,95066.56
2023-03-18T01:41:29.072Z,95075.16
2023-03-18T01:43:59.795Z,95069.16
2023-03-18T01:46:34.895Z,95068.75
2023-03-18T01:49:07.446Z,95065.03
2023-03-18T01:51:36.467Z,95067.75
2023-03-18T01:54:07.597Z,95072.34
2023-03-18T01:56:38.340Z,95072.91
2023-03-18T01:59:07.856Z,95067.78
2023-03-18T02:01:39.898Z,95068.59
2023-03-18T02:04:11.165Z,95064.31
2023-03-18T02:06:39.426Z,95068.94
2023-03-18T02:09:07.873Z,95059.50
2023-03-18T02:11:39.234Z,95059.25
2023-03-18T02:14:10.615Z,95066.53
2023-03-18T02:16:44.466Z,95060.88
2023-03-18T02:19:37.731Z,95073.50
2023-03-18T02:22:13.953Z,95074.59
2023-03-18T02:24:51.552Z,95064.66
2023-03-18T02:27:21.674Z,95066.81
2023-03-18T02:29:50.345Z,95068.97
2023-03-18T02:32:20.174Z,95068.16
2023-03-18T02:34:49.291Z,95061.13
2023-03-18T02:37:16.956Z,95068.16
2023-03-18T02:39:44.611Z,95068.69
2023-03-18T02:42:14.086Z,95077.03
2023-03-18T02:44:46.769Z,95084.28
2023-03-18T02:47:18.079Z,95089.63
2023-03-18T02:49:46.098Z,95086.59
2023-03-18T02:52:13.869Z,95091.63
2023-03-18T02:54:42.003Z,95099.34
2023-03-18T02:57:09.905Z,95107.31
2023-03-18T02:59:37.610Z,95102.34
2023-03-18T03:02:07.111Z,95104.94
2023-03-18T03:04:34.920Z,95107.88
2023-03-18T03:07:02.613Z,95121.06
2023-03-18T03:09:31.007Z,95114.38
2023-03-18T03:11:58.722Z,95125.13
2023-03-18T03:14:26.473Z,95125.06
2023-03-18T03:16:54.112Z,95128.25
2023-03-18T03:19:25.113Z,95132.53
2023-03-18T03:21:52.817Z,95137.59
2023-03-18T03:24:20.493Z,95143.22
2023-03-18T03:26:48.617Z,95138.44
2023-03-18T03:29:16.319Z,95144.63
2023-03-18T03:31:44.016Z,95146.06
2023-03-18T03:34:11.878Z,95150.81
2023-03-18T03:36:41.041Z,95146.75
2023-03-18T03:39:08.699Z,95151.56
2023-03-18T03:41:36.381Z,95148.00
2023-03-18T03:44:04.136Z,95142.06
2023-03-18T03:46:32.311Z,95154.25
2023-03-18T03:48:59.964Z,95148.28
2023-03-18T03:51:29.440Z,95147.78
2023-03-18T03:53:58.981Z,95145.41
2023-03-18T03:56:27.124Z,95143.03
2023-03-18T03:58:54.816Z,95148.19
2023-03-18T04:01:22.462Z,95151.53
2023-03-18T04:03:50.275Z,95146.78
2023-03-18T04:06:17.986Z,95151.16
2023-03-18T04:08:46.227Z,95148.00
2023-03-18T04:11:15.297Z,95148.88
2023-03-18T04:13:42.961Z,95149.47
2023-03-18T04:16:10.714Z,95154.09
2023-03-18T04:18:38.447Z,95149.22
2023-03-18T04:21:08.785Z,95137.94
2023-03-18T04:23:36.552Z,95136.03
2023-03-18T04:26:05.353Z,95145.75
2023-03-18T04:28:34.442Z,95136.59
2023-03-18T04:31:02.178Z,95138.22
2023-03-18T04:33:29.876Z,95146.84
2023-03-18T04:35:58.157Z,95140.91
2023-03-18T04:38:25.879Z,95145.75
2023-03-18T04:40:53.577Z,95152.47
2023-03-18T04:43:21.483Z,95156.78
2023-03-18T04:45:50.528Z,95151.13
2023-03-18T04:48:18.255Z,95157.34
2023-03-18T04:50:46.140Z,95160.59
2023-03-18T04:53:13.791Z,95159.25
2023-03-18T04:55:41.739Z,95159.56
2023-03-18T04:58:09.416Z,95146.59
2023-03-18T05:00:37.415Z,95148.22
2023-03-18T05:03:07.400Z,95145.78
2023-03-18T05:05:37.329Z,95142.84
2023-03-18T05:08:07.520Z,95142.03
2023-03-18T05:10:35.227Z,95139.63
2023-03-18T05:13:03.637Z,95136.34
2023-03-18T05:15:31.839Z,95137.97
2023-03-18T05:18:00.267Z,95145.25
2023-03-18T05:20:29.583Z,95145.81
2023-03-18T05:22:58.164Z,95140.13
2023-03-18T05:25:26.114Z,95136.63
2023-03-18T05:27:54.466Z,95136.06
2023-03-18T05:30:22.568Z,95137.69
2023-03-18T05:32:50.482Z,95140.13
2023-03-18T05:35:19.211Z,95150.66
2023-03-18T05:37:48.290Z,95150.91
2023-03-18T05:40:16.424Z,95143.91
2023-03-18T05:42:55.283Z,95148.47
2023-03-18T05:45:23.374Z,95144.97
2023-03-18T05:47:51.801Z,95149.28
2023-03-18T05:50:31.760Z,95155.25
2023-03-18T05:53:01.127Z,95160.09
2023-03-18T05:55:29.552Z,95163.34
2023-03-18T05:57:57.805Z,95158.19
2023-03-18T06:00:26.222Z,95168.19
2023-03-18T06:02:54.007Z,95165.22
2023-03-18T06:05:22.412Z,95152.25
2023-03-18T06:07:50.204Z,95158.44
2023-03-18T06:10:19.542Z,95160.06
2023-03-18T06:12:47.273Z,95153.00
2023-03-18T06:15:17.364Z,95158.69
2023-03-18T06:17:45.068Z,95154.38
2023-03-18T06:20:14.190Z,95160.03
2023-03-18T06:22:43.718Z,95155.72
2023-03-18T06:25:12.003Z,95159.50
2023-03-18T06:27:41.252Z,95169.47
2023-03-18T06:30:10.566Z,95166.75
2023-03-18T06:32:38.950Z,95165.13
2023-03-18T06:35:07.742Z,95166.72
2023-03-18T06:37:35.686Z,95161.56
2023-03-18T06:40:03.856Z,95159.41
2023-03-18T06:42:31.696Z,95163.44
2023-03-18T06:45:01.466Z,95160.41
2023-03-18T06:47:30.940Z,95159.78
2023-03-18T06:49:58.601Z,95173.28
2023-03-18T06:52:27.491Z,95162.69
2023-03-18T06:54:55.180Z,95165.38
2023-03-18T06:57:22.895Z,95159.59
2023-03-18T06:59:50.809Z,95163.88
2023-03-18T07:02:19.882Z,95159.47
2023-03-18T07:04:48.123Z,95161.88
2023-03-18T07:07:16.640Z,95162.06
2023-03-18T07:09:44.854Z,95162.50
2023-03-18T07:12:13.759Z,95160.84
2023-03-18T07:14:42.322Z,95161.50
2023-03-18T07:17:11.361Z,95163.81
2023-03-18T07:19:40.441Z,95159.34
2023-03-18T07:22:08.501Z,95161.38
2023-03-18T07:24:36.240Z,95168.25
2023-03-18T07:27:04.377Z,95167.63
2023-03-18T07:29:32.119Z,95170.69
2023-03-18T07:31:59.814Z,95167.34
2023-03-18T07:34:27.521Z,95165.53
2023-03-18T07:36:56.588Z,95164.94
2023-03-18T07:39:24.474Z,95170.97
2023-03-18T07:41:54.063Z,95172.09
2023-03-18T07:44:21.748Z,95164.81
2023-03-18T07:46:49.523Z,95161.84
2023-03-18T07:49:17.241Z,95159.16
2023-03-18T07:51:44.977Z,95166.03
2023-03-18T07:54:14.237Z,95165.47
2023-03-18T07:56:41.970Z,95173.97
2023-03-18T07:59:10.286Z,95177.53
2023-03-18T08:01:39.058Z,95178.56
2023-03-18T08:04:06.952Z,95170.91
2023-03-18T08:06:35.687Z,95169.69
2023-03-18T08:09:03.794Z,95178.47
2023-03-18T08:11:33.823Z,95171.88
2023-03-18T08:14:01.816Z,95172.59
2023-03-18T08:16:29.768Z,95171.28
2023-03-18T08:18:57.543Z,95173.16
2023-03-18T08:21:25.514Z,95170.25
2023-03-18T08:23:53.170Z,95172.59
2023-03-18T08:26:21.490Z,95180.41
2023-03-18T08:28:50.564Z,95179.84
2023-03-18T08:31:18.760Z,95175.50
2023-03-18T08:33:47.535Z,95175.72
2023-03-18T08:36:15.306Z,95172.59
2023-03-18T08:38:43.255Z,95168.53
2023-03-18T08:41:11.116Z,95173.72
2023-03-18T08:43:39.213Z,95166.00
2023-03-18T08:46:08.597Z,95172.47
2023-03-18T08:48:36.642Z,95171.66
2023-03-18T08:51:05.145Z,95168.00
2023-03-18T08:53:32.829Z,95167.72
2023-03-18T08:56:02.853Z,95171.94
2023-03-18T08:58:30.693Z,95167.91
2023-03-18T09:00:58.654Z,95168.25
2023-03-18T09:03:28.662Z,95171.03
2023-03-18T09:05:56.415Z,95167.22
2023-03-18T09:08:24.486Z,95161.78
2023-03-18T09:10:53.610Z,95163.72
2023-03-18T09:13:22.071Z,95165.00
2023-03-18T09:15:50.423Z,95161.97
2023-03-18T09:18:20.210Z,95168.06
2023-03-18T09:20:50.200Z,95162.78
2023-03-18T09:23:18.595Z,95159.91
2023-03-18T09:25:47.002Z,95161.81
2023-03-18T09:28:15.187Z,95152.16
2023-03-18T09:30:43.564Z,95153.41
2023-03-18T09:33:11.781Z,95159.66
2023-03-18T09:35:39.902Z,95166.72
2023-03-18T09:38:10.184Z,95158.66
2023-03-18T09:40:45.695Z,95159.00
2023-03-18T09:43:23.216Z,95156.91
2023-03-18T09:46:02.194Z,95153.97
2023-03-18T09:48:55.929Z,95145.13
2023-03-18T09:51:37.286Z,95146.75
2023-03-18T09:54:13.571Z,95146.41
2023-03-18T09:56:41.687Z,95145.38
2023-03-18T09:59:19.185Z,95147.09
2023-03-18T10:01:49.474Z,95141.84
2023-03-18T10:04:21.712Z,95149.19
2023-03-18T10:06:52.602Z,95143.69
2023-03-18T10:09:28.385Z,95150.44
2023-03-18T10:12:07.377Z,95147.72
2023-03-18T10:14:42.421Z,95144.81
2023-03-18T10:17:18.881Z,95141.66
2023-03-18T10:19:50.060Z,95143.53
2023-03-18T10:22:33.842Z,95146.50
2023-03-18T10:25:12.869Z,95149.25
2023-03-18T10:27:50.423Z,95152.94
2023-03-18T10:30:31.552Z,95146.78
2023-03-18T10:33:08.658Z,95142.19
2023-03-18T10:35:42.781Z,95132.13
2023-03-18T10:38:19.396Z,95139.41
2023-03-18T10:40:49.367Z,95138.25
2023-03-18T10:43:22.104Z,95139.41
2023-03-18T10:45:53.372Z,95140.31
2023-03-18T10:48:27.511Z,95128.69
2023-03-18T10:51:08.229Z,95126.22
2023-03-18T10:53:41.304Z,95118.56
2023-03-18T10:56:11.800Z,95114.75
2023-03-18T10:58:40.608Z,95108.31
2023-03-18T11:01:10.343Z,95110.69
2023-03-18T11:03:44.100Z,95111.44
2023-03-18T11:06:18.830Z,95101.47
2023-03-18T11:08:48.810Z,95094.88
2023-03-18T11:11:29.096Z,95107.19
2023-03-18T11:13:58.426Z,95094.78
2023-03-18T11:16:34.593Z,95093.31
2023-03-18T11:19:09.565Z,95091.50
2023-03-18T11:21:39.087Z,95088.66
2023-03-18T11:24:34.526Z,95082.56
2023-03-18T11:27:04.324Z,95078.03
2023-03-18T11:29:34.602Z,95073.91
2023-03-18T11:32:03.306Z,95075.88
2023-03-18T11:34:32.872Z,95065.94
2023-03-18T11:37:04.378Z,95071.31
2023-03-18T11:39:36.670Z,95068.72
2023-03-18T11:42:18.812Z,95058.13
2023-03-18T11:44:46.598Z,95062.41
2023-03-18T11:47:19.099Z,95062.22
2023-03-18T11:49:46.755Z,95055.78
2023-03-18T11:52:32.903Z,95036.88
2023-03-18T11:55:23.471Z,95044.00
2023-03-18T11:58:17.909Z,95040.84
2023-03-18T12:00:55.295Z,95030.59
2023-03-18T12:03:41.919Z,95025.59
2023-03-18T12:06:20.222Z,95022.72
2023-03-18T12:08:56.979Z,95021.94
2023-03-18T12:11:35.968Z,95017.56
2023-03-18T12:14:13.789Z,95019.50
2023-03-18T12:16:52.383Z,95019.00
2023-03-18T12:19:34.273Z,95025.34
2023-03-18T12:22:24.602Z,95019.09
2023-03-18T12:25:08.520Z,95021.41
2023-03-18T12:27:45.114Z,95020.53
2023-03-18T12:30:25.069Z,95022.47
2023-03-18T12:33:04.031Z,95017.50
2023-03-18T12:35:45.269Z,95025.03
2023-03-18T12:38:39.448Z,95023.91
2023-03-18T12:41:10.896Z,95015.84
2023-03-18T12:43:52.598Z,95015.72
2023-03-18T12:46:28.775Z,95007.09
2023-03-18T12:49:03.751Z,95009.50
2023-03-18T12:51:45.199Z,95010.25
2023-03-18T12:54:22.146Z,95011.19
2023-03-18T12:56:53.620Z,95008.03
2023-03-18T12:59:29.200Z,95008.56
2023-03-18T13:02:20.614Z,95011.63
2023-03-18T13:04:55.435Z,95012.38
2023-03-18T13:07:29.912Z,95006.97
2023-03-18T13:10:04.191Z,95004.09
2023-03-18T13:12:36.931Z,95012.03
2023-03-18T13:15:13.979Z,95009.31
2023-03-18T13:17:44.896Z,95003.06
2023-03-18T13:20:16.114Z,95008.28
2023-03-18T13:23:10.784Z,95009.75
2023-03-18T13:25:46.090Z,95001.56
2023-03-18T13:28:34.137Z,94996.41
2023-03-18T13:31:11.734Z,95002.94
2023-03-18T13:34:11.943Z,94992.34
2023-03-18T13:37:03.806Z,94991.34
2023-03-18T13:40:09.964Z,94982.63
2023-03-18T13:42:39.706Z,94978.88
2023-03-18T13:45:15.617Z,94981.22
2023-03-18T13:47:44.360Z,94977.47
2023-03-18T13:50:32.243Z,94980.75
2023-03-18T13:53:02.963Z,94977.41
2023-03-18T13:55:35.936Z,94974.09
2023-03-18T13:58:19.709Z,94966.78
2023-03-18T14:01:28.374Z,94961.66
2023-03-18T14:04:00.657Z,94951.38
2023-03-18T14:06:47.556Z,94951.72
2023-03-18T14:09:33.813Z,94944.59
2023-03-18T14:12:39.761Z,94942.47
2023-03-18T14:15:45.573Z,94935.66
2023-03-18T14:18:37.089Z,94939.47
2023-03-18T14:21:08.738Z,94936.75
2023-03-18T14:23:43.652Z,94932.94
2023-03-18T14:26:24.194Z,94931.69
2023-03-18T14:28:57.651Z,94934.63
2023-03-18T14:31:50.321Z,94941.16
2023-03-18T14:34:30.586Z,94927.31
2023-03-18T14:37:21.454Z,94937.16
2023-03-18T14:39:52.980Z,94940.50
2023-03-18T14:42:41.973Z,94939.16
2023-03-18T14:45:19.302Z,94937.44
2023-03-18T14:47:50.611Z,94933.13
2023-03-18T14:50:25.570Z,94931.03
2023-03-18T14:52:56.650Z,94938.13
2023-03-18T14:55:31.584Z,94932.56
2023-03-18T14:58:01.146Z,94934.44
2023-03-18T15:00:33.465Z,94932.00
2023-03-18T15:03:03.390Z,94934.31
2023-03-18T15:05:35.795Z,94929.28
2023-03-18T15:08:08.901Z,94925.81
2023-03-18T15:10:37.499Z,94930.50
2023-03-18T15:13:08.575Z,94932.84
2023-03-18T15:15:36.784Z,94926.25
2023-03-18T15:18:18.508Z,94919.78
2023-03-18T15:20:49.322Z,94927.63
2023-03-18T15:23:19.500Z,94921.38
2023-03-18T15:25:50.397Z,94918.50
2023-03-18T15:28:23.700Z,94921.44
2023-03-18T15:30:54.306Z,94925.44
2023-03-18T15:33:24.296Z,94930.50
2023-03-18T15:35:56.129Z,94926.94
2023-03-18T15:38:29.001Z,94925.66
2023-03-18T15:41:01.436Z,94927.56
2023-03-18T15:43:40.155Z,94929.69
2023-03-18T15:46:15.808Z,94935.06
2023-03-18T15:48:47.786Z,94940.00
2023-03-18T15:51:26.771Z,94938.78
2023-03-18T15:53:58.687Z,94934.47
2023-03-18T15:56:29.654Z,94929.34
2023-03-18T15:59:08.850Z,94938.00
2023-03-18T16:01:37.202Z,94934.03
2023-03-18T16:04:10.136Z,94938.81
2023-03-18T16:06:38.561Z,94941.56
2023-03-18T16:09:15.712Z,94942.97
2023-03-18T16:11:45.112Z,94945.13
2023-03-18T16:14:17.352Z,94938.03
2023-03-18T16:16:45.324Z,94930.94
2023-03-18T16:19:22.870Z,94945.91
2023-03-18T16:21:50.919Z,94948.94
2023-03-18T16:24:18.686Z,94944.00
2023-03-18T16:26:47.060Z,94953.81
2023-03-18T16:29:18.692Z,94949.88
2023-03-18T16:31:47.222Z,94950.19
2023-03-18T16:34:21.666Z,94950.28
2023-03-18T16:36:51.213Z,94953.88
2023-03-18T16:39:21.033Z,94954.22
2023-03-18T16:41:49.594Z,94955.34
2023-03-18T16:44:21.161Z,94967.81
2023-03-18T16:46:53.872Z,94972.69
2023-03-18T16:49:24.930Z,94974.09
2023-03-18T16:51:53.575Z,94981.38
2023-03-18T16:54:23.787Z,94978.03
2023-03-18T16:56:54.789Z,94980.16
2023-03-18T16:59:24.850Z,94991.19
2023-03-18T17:01:54.133Z,94989.38
2023-03-18T17:04:26.021Z,94997.91
2023-03-18T17:06:54.046Z,94988.03
2023-03-18T17:09:23.091Z,94997.13
2023-03-18T17:11:53.050Z,95008.28
2023-03-18T17:14:34.383Z,95008.81
2023-03-18T17:17:06.646Z,95000.94
2023-03-18T17:19:35.194Z,95019.59
2023-03-18T17:22:03.166Z,95009.78
2023-03-18T17:24:30.913Z,95017.13
2023-03-18T17:27:01.588Z,95021.06
2023-03-18T17:29:32.539Z,95024.19
2023-03-18T17:32:01.421Z,95017.03
2023-03-18T17:34:29.194Z,95015.53
2023-03-18T17:36:59.549Z,95023.50
2023-03-18T17:39:27.270Z,95031.88
2023-03-18T17:41:55.001Z,95031.25
2023-03-18T17:44:29.897Z,95026.25
2023-03-18T17:46:59.324Z,95019.88
2023-03-18T17:49:28.525Z,95022.25
2023-03-18T17:51:57.308Z,95023.34
2023-03-18T17:54:27.279Z,95020.56
2023-03-18T17:56:56.122Z,95015.81
2023-03-18T17:59:23.929Z,95022.81
2023-03-18T18:01:52.581Z,95013.88
2023-03-18T18:04:24.717Z,95017.38
2023-03-18T18:06:54.150Z,95018.09
2023-03-18T18:09:22.118Z,95019.16
2023-03-18T18:11:51.015Z,95015.25
2023-03-18T18:14:21.804Z,95013.75
2023-03-18T18:16:50.146Z,95018.50
2023-03-18T18:19:19.448Z,95026.78
2023-03-18T18:21:50.430Z,95029.69
2023-03-18T18:24:24.219Z,95028.22
2023-03-18T18:26:52.477Z,95037.78
2023-03-18T18:29:21.654Z,95027.94
2023-03-18T18:31:49.797Z,95028.41
2023-03-18T18:34:18.179Z,95026.84
2023-03-18T18:36:45.916Z,95033.59
2023-03-18T18:39:15.250Z,95035.31
2023-03-18T18:41:45.055Z,95026.72
2023-03-18T18:44:13.010Z,95036.22
2023-03-18T18:46:40.929Z,95031.25
2023-03-18T18:49:18.392Z,95033.78
2023-03-18T18:51:46.672Z,95033.97
2023-03-18T18:54:16.075Z,95035.44
2023-03-18T18:56:44.486Z,95028.25
2023-03-18T18:59:24.722Z,95027.28
2023-03-18T19:01:52.735Z,95027.63
2023-03-18T19:04:21.794Z,95028.53
2023-03-18T19:06:50.835Z,95034.53
2023-03-18T19:09:21.868Z,95036.59
2023-03-18T19:11:50.152Z,95039.38
2023-03-18T19:14:20.524Z,95032.13
2023-03-18T19:16:49.374Z,95036.84
2023-03-18T19:19:19.455Z,95038.78
2023-03-18T19:21:47.265Z,95040.78
2023-03-18T19:24:36.706Z,95041.59
2023-03-18T19:27:07.062Z,95046.81
2023-03-18T19:29:34.966Z,95044.16
2023-03-18T19:32:02.967Z,95048.53
2023-03-18T19:34:32.108Z,95047.44
2023-03-18T19:37:02.559Z,95056.66
2023-03-18T19:39:30.263Z,95055.31
2023-03-18T19:41:59.393Z,95062.09
2023-03-18T19:44:27.857Z,95061.03
2023-03-18T19:46:58.546Z,95067.81
2023-03-18T19:49:28.416Z,95064.31
2023-03-18T19:51:56.362Z,95069.25
2023-03-18T19:54:28.670Z,95059.81
2023-03-18T19:56:57.337Z,95073.31
2023-03-18T19:59:33.492Z,95070.16
2023-03-18T20:02:05.245Z,95062.84
2023-03-18T20:04:33.151Z,95066.91
2023-03-18T20:07:01.518Z,95072.63
2023-03-18T20:09:29.743Z,95074.78
2023-03-18T20:12:04.673Z,95073.72
2023-03-18T20:14:37.938Z,95075.91
2023-03-18T20:17:28.276Z,95069.44
2023-03-18T20:19:56.025Z,95067.06
2023-03-18T20:22:26.051Z,95075.16
2023-03-18T20:24:54.283Z,95071.66
2023-03-18T20:27:22.164Z,95066.00
2023-03-18T20:29:51.404Z,95073.53
2023-03-18T20:32:19.162Z,95076.22
2023-03-18T20:34:47.110Z,95083.22
2023-03-18T20:37:22.857Z,95089.41
2023-03-18T20:39:51.680Z,95087.25
2023-03-18T20:42:19.612Z,95082.72
2023-03-18T20:44:47.332Z,95078.66
2023-03-18T20:47:16.360Z,95080.81
2023-03-18T20:49:45.726Z,95077.03
2023-03-18T20:52:25.847Z,95079.72
2023-03-18T20:54:53.842Z,95070.28
2023-03-18T20:57:21.621Z,95070.25
2023-03-18T20:59:49.696Z,95075.94
2023-03-18T21:02:31.007Z,95074.56
2023-03-18T21:04:59.999Z,95077.00
2023-03-18T21:07:28.630Z,95084.25
2023-03-18T21:09:56.407Z,95090.16
2023-03-18T21:12:25.239Z,95087.50
2023-03-18T21:14:53.282Z,95085.88
2023-03-18T21:17:23.566Z,95090.19
2023-03-18T21:19:54.252Z,95088.81
2023-03-18T21:22:24.520Z,95085.28
2023-03-18T21:24:52.301Z,95089.31
2023-03-18T21:27:21.206Z,95086.63
2023-03-18T21:29:49.912Z,95089.56
2023-03-18T21:32:24.376Z,95086.84
2023-03-18T21:34:54.594Z,95094.38
2023-03-18T21:37:24.787Z,95089.00
2023-03-18T21:39:53.126Z,95089.53
2023-03-18T21:42:24.802Z,95090.63
2023-03-18T21:44:53.435Z,95086.56
2023-03-18T21:47:22.857Z,95083.03
2023-03-18T21:49:51.511Z,95077.09
2023-03-18T21:52:28.365Z,95076.03
2023-03-18T21:54:59.938Z,95073.28
2023-03-18T21:57:27.920Z,95075.16
2023-03-18T21:59:55.813Z,95067.34
2023-03-18T22:02:31.489Z,95074.56
2023-03-18T22:05:01.227Z,95074.03
2023-03-18T22:07:32.310Z,95074.59
2023-03-18T22:10:00.680Z,95071.91
2023-03-18T22:12:31.129Z,95075.13
2023-03-18T22:14:59.337Z,95074.28
2023-03-18T22:17:28.775Z,95068.03
2023-03-18T22:19:58.214Z,95063.72
2023-03-18T22:22:28.221Z,95074.50
2023-03-18T22:24:57.257Z,95079.09
2023-03-18T22:27:26.995Z,95082.06
2023-03-18T22:29:56.656Z,95074.31
2023-03-18T22:32:34.708Z,95081.84
2023-03-18T22:35:02.721Z,95082.66
2023-03-18T22:37:30.487Z,95081.31
2023-03-18T22:40:01.018Z,95082.66
2023-03-18T22:42:29.192Z,95074.31
2023-03-18T22:44:57.190Z,95076.97
2023-03-18T22:47:27.036Z,95066.16
2023-03-18T22:49:54.825Z,95071.50
2023-03-18T22:52:25.396Z,95074.75
2023-03-18T23:00:05.106Z,95076.84
2023-03-18T23:02:32.802Z,95068.53
2023-03-18T23:05:00.498Z,95074.44
2023-03-18T23:07:31.064Z,95079.59
2023-03-18T23:10:00.635Z,95072.09
2023-03-18T23:12:30.183Z,95088.47
2023-03-18T23:14:58.069Z,95089.84
2023-03-18T23:17:28.931Z,95091.72
2023-03-18T23:19:57.049Z,95091.16
2023-03-18T23:22:27.386Z,95080.13
2023-03-18T23:24:55.616Z,95080.94
2023-03-18T23:27:24.459Z,95079.09
2023-03-18T23:29:52.229Z,95075.03
2023-03-18T23:32:20.902Z,95085.78
2023-03-18T23:34:50.956Z,95083.09
2023-03-18T23:37:19.022Z,95092.25
2023-03-18T23:39:47.099Z,95091.13
2023-03-18T23:42:15.141Z,95100.53
2023-03-18T23:44:45.198Z,95100.78
2023-03-18T23:47:14.723Z,95105.28
2023-03-18T23:49:42.388Z,95099.56
2023-03-18T23:52:13.730Z,95098.50
2023-03-18T23:54:43.354Z,95104.75
2023-03-18T23:57:12.049Z,95110.38
2023-03-18T23:59:40.088Z,95111.69
